createdAt,value
2018-07-16T00:00:03.128Z,95.48
2018-07-16T00:02:32.130Z,94.31
2018-07-16T00:05:00.641Z,94.46
2018-07-16T00:07:29.469Z,95.11
2018-07-16T00:09:57.953Z,95.81
2018-07-16T00:12:26.508Z,96.26
2018-07-16T00:14:55.012Z,96.95
2018-07-16T00:17:23.539Z,98.21
2018-07-16T00:19:52.075Z,99.22
2018-07-16T00:22:20.563Z,98.47
2018-07-16T00:24:49.029Z,99.08
2018-07-16T00:27:17.670Z,99.60
2018-07-16T00:29:46.452Z,100.00
2018-07-16T00:32:14.986Z,100.00
2018-07-16T00:34:43.695Z,100.00
2018-07-16T00:37:12.282Z,100.00
2018-07-16T00:39:40.863Z,100.00
2018-07-16T00:42:09.311Z,100.00
2018-07-16T00:44:37.861Z,100.00
2018-07-16T00:47:06.738Z,100.00
2018-07-16T00:49:35.410Z,100.00
2018-07-16T00:52:03.930Z,100.00
2018-07-16T00:54:32.541Z,100.00
2018-07-16T00:57:01.440Z,100.00
2018-07-16T00:59:30.064Z,100.00
2018-07-16T01:01:58.639Z,100.00
2018-07-16T01:04:27.193Z,100.00
2018-07-16T01:06:55.703Z,100.00
2018-07-16T01:09:24.146Z,100.00
2018-07-16T01:11:52.678Z,100.00
2018-07-16T01:14:21.297Z,100.00
2018-07-16T01:16:49.883Z,100.00
2018-07-16T01:19:18.454Z,100.00
2018-07-16T01:21:46.975Z,100.00
2018-07-16T01:24:15.469Z,100.00
2018-07-16T01:26:43.946Z,100.00
2018-07-16T01:29:12.498Z,100.00
2018-07-16T01:31:41.003Z,100.00
2018-07-16T01:34:09.588Z,100.00
2018-07-16T01:36:38.084Z,100.00
2018-07-16T01:39:06.738Z,100.00
2018-07-16T01:41:36.050Z,100.00
2018-07-16T01:44:04.561Z,100.00
2018-07-16T01:46:33.011Z,100.00
2018-07-16T01:49:01.516Z,100.00
2018-07-16T01:51:30.124Z,100.00
2018-07-16T01:53:58.675Z,100.00
2018-07-16T02:02:43.226Z,100.00
2018-07-16T02:05:12.034Z,100.00
2018-07-16T02:07:40.523Z,100.00
2018-07-16T02:10:09.006Z,100.00
2018-07-16T02:12:37.478Z,100.00
2018-07-16T02:15:06.178Z,100.00
2018-07-16T02:17:35.038Z,100.00
2018-07-16T02:20:05.758Z,100.00
2018-07-16T02:22:34.422Z,100.00
2018-07-16T02:25:02.874Z,100.00
2018-07-16T02:27:31.654Z,100.00
2018-07-16T02:30:00.160Z,100.00
2018-07-16T02:32:28.759Z,100.00
2018-07-16T02:34:57.236Z,100.00
2018-07-16T02:37:25.682Z,100.00
2018-07-16T02:39:54.323Z,100.00
2018-07-16T02:42:22.827Z,100.00
2018-07-16T02:44:51.364Z,100.00
2018-07-16T02:47:19.861Z,100.00
2018-07-16T02:49:48.451Z,100.00
2018-07-16T02:52:16.971Z,100.00
2018-07-16T02:54:45.496Z,100.00
2018-07-16T02:57:14.087Z,100.00
2018-07-16T02:59:42.631Z,100.00
2018-07-16T03:02:11.482Z,100.00
2018-07-16T03:04:40.372Z,100.00
2018-07-16T03:07:08.912Z,100.00
2018-07-16T03:09:38.519Z,100.00
2018-07-16T03:12:07.382Z,100.00
2018-07-16T03:14:35.966Z,100.00
2018-07-16T03:17:04.467Z,100.00
2018-07-16T03:19:32.962Z,100.00
2018-07-16T03:22:01.872Z,100.00
2018-07-16T03:24:30.466Z,100.00
2018-07-16T03:26:59.031Z,100.00
2018-07-16T03:29:28.279Z,100.00
2018-07-16T03:32:01.060Z,100.00
2018-07-16T03:34:29.611Z,100.00
2018-07-16T03:36:58.139Z,100.00
2018-07-16T03:39:26.715Z,100.00
2018-07-16T03:41:55.195Z,100.00
2018-07-16T03:44:23.735Z,100.00
2018-07-16T03:46:52.254Z,100.00
2018-07-16T03:49:20.862Z,100.00
2018-07-16T03:51:49.366Z,100.00
2018-07-16T03:54:17.866Z,100.00
2018-07-16T03:56:46.971Z,100.00
2018-07-16T03:59:15.547Z,100.00
2018-07-16T04:01:44.100Z,100.00
2018-07-16T04:04:12.726Z,100.00
2018-07-16T04:06:41.288Z,100.00
2018-07-16T04:09:09.778Z,100.00
2018-07-16T04:11:38.659Z,100.00
2018-07-16T04:14:07.264Z,100.00
2018-07-16T04:16:35.810Z,100.00
2018-07-16T04:19:04.414Z,100.00
2018-07-16T04:21:32.961Z,100.00
2018-07-16T04:24:01.492Z,100.00
2018-07-16T04:26:30.056Z,100.00
2018-07-16T04:28:58.503Z,100.00
2018-07-16T04:31:27.022Z,100.00
2018-07-16T04:33:55.630Z,100.00
2018-07-16T04:36:24.232Z,100.00
2018-07-16T04:38:52.815Z,100.00
2018-07-16T04:41:21.344Z,100.00
2018-07-16T04:43:50.128Z,100.00
2018-07-16T04:46:18.623Z,100.00
2018-07-16T04:48:47.080Z,100.00
2018-07-16T04:51:16.222Z,100.00
2018-07-16T04:53:44.915Z,100.00
2018-07-16T04:56:13.524Z,100.00
2018-07-16T04:58:42.222Z,100.00
2018-07-16T05:01:10.974Z,100.00
2018-07-16T05:03:39.491Z,100.00
2018-07-16T05:06:08.016Z,100.00
2018-07-16T05:08:36.460Z,100.00
2018-07-16T05:11:04.974Z,100.00
2018-07-16T05:13:35.710Z,100.00
2018-07-16T05:16:04.315Z,99.53
2018-07-16T05:18:33.003Z,98.71
2018-07-16T05:21:01.287Z,98.00
2018-07-16T05:23:29.859Z,97.10
2018-07-16T05:25:58.346Z,96.15
2018-07-16T05:28:26.847Z,95.26
2018-07-16T05:30:55.523Z,94.71
2018-07-16T05:33:24.129Z,95.40
2018-07-16T05:35:52.693Z,94.19
2018-07-16T05:38:21.282Z,93.40
2018-07-16T05:40:49.786Z,94.06
2018-07-16T05:43:18.346Z,92.56
2018-07-16T05:45:47.207Z,92.21
2018-07-16T05:48:16.048Z,91.19
2018-07-16T05:50:44.534Z,90.75
2018-07-16T05:53:13.022Z,90.92
2018-07-16T05:55:41.519Z,90.06
2018-07-16T05:58:10.072Z,89.33
2018-07-16T06:00:39.121Z,88.93
2018-07-16T06:03:07.891Z,88.99
2018-07-16T06:05:36.383Z,89.28
2018-07-16T06:08:04.954Z,88.60
2018-07-16T06:10:33.559Z,88.11
2018-07-16T06:13:02.110Z,87.53
2018-07-16T06:15:30.689Z,87.29
2018-07-16T06:17:59.180Z,86.33
2018-07-16T06:20:28.217Z,85.65
2018-07-16T06:22:57.382Z,85.60
2018-07-16T06:25:25.844Z,84.85
2018-07-16T06:27:54.635Z,84.46
2018-07-16T06:30:23.143Z,84.88
2018-07-16T06:32:51.714Z,84.76
2018-07-16T06:35:20.175Z,83.29
2018-07-16T06:37:48.717Z,83.45
2018-07-16T06:40:17.337Z,82.86
2018-07-16T06:42:45.715Z,82.58
2018-07-16T06:45:14.188Z,81.44
2018-07-16T06:47:42.857Z,80.92
2018-07-16T06:50:11.259Z,80.64
2018-07-16T06:52:39.727Z,79.18
2018-07-16T06:55:08.451Z,79.34
2018-07-16T06:57:37.058Z,79.75
2018-07-16T07:00:06.047Z,79.38
2018-07-16T07:02:34.615Z,79.21
2018-07-16T07:05:03.140Z,79.11
2018-07-16T07:07:31.659Z,78.94
2018-07-16T07:10:00.108Z,78.25
2018-07-16T07:12:28.570Z,77.84
2018-07-16T07:14:57.162Z,77.63
2018-07-16T07:17:25.726Z,77.40
2018-07-16T07:19:54.303Z,78.40
2018-07-16T07:22:22.827Z,77.17
2018-07-16T07:24:51.390Z,76.64
2018-07-16T07:27:19.899Z,76.59
2018-07-16T07:29:48.399Z,76.16
2018-07-16T07:32:16.880Z,76.02
2018-07-16T07:34:45.393Z,75.78
2018-07-16T07:37:14.170Z,74.11
2018-07-16T07:39:42.770Z,73.03
2018-07-16T07:42:11.279Z,71.32
2018-07-16T07:44:39.817Z,70.64
2018-07-16T07:47:08.286Z,71.73
2018-07-16T07:49:36.775Z,70.91
2018-07-16T07:52:05.263Z,69.60
2018-07-16T07:54:34.071Z,68.51
2018-07-16T07:57:02.483Z,67.71
2018-07-16T07:59:30.970Z,67.32
2018-07-16T08:01:59.504Z,67.23
2018-07-16T08:04:28.019Z,67.30
2018-07-16T08:07:01.836Z,66.05
2018-07-16T08:09:30.399Z,65.44
2018-07-16T08:11:59.151Z,64.48
2018-07-16T08:14:27.759Z,65.84
2018-07-16T08:16:56.399Z,64.83
2018-07-16T08:19:24.914Z,64.79
2018-07-16T08:21:53.511Z,63.33
2018-07-16T08:24:22.206Z,62.44
2018-07-16T08:26:50.775Z,62.81
2018-07-16T08:29:19.207Z,60.90
2018-07-16T08:31:47.854Z,56.74
2018-07-16T08:34:16.371Z,54.91
2018-07-16T08:36:44.876Z,58.01
2018-07-16T08:39:13.573Z,56.69
2018-07-16T08:41:42.218Z,56.50
2018-07-16T08:44:10.730Z,55.89
2018-07-16T08:46:39.355Z,53.93
2018-07-16T08:49:07.922Z,54.96
2018-07-16T08:51:36.403Z,53.54
2018-07-16T08:54:04.865Z,54.66
2018-07-16T08:56:33.530Z,54.17
2018-07-16T08:59:02.661Z,54.61
2018-07-16T09:01:35.108Z,51.98
2018-07-16T09:04:03.610Z,52.20
2018-07-16T09:06:32.191Z,52.57
2018-07-16T09:09:00.838Z,51.48
2018-07-16T09:11:29.391Z,51.25
2018-07-16T09:13:57.913Z,50.79
2018-07-16T09:16:26.830Z,47.16
2018-07-16T09:18:55.303Z,49.88
2018-07-16T09:21:23.788Z,48.38
2018-07-16T09:23:52.254Z,48.02
2018-07-16T09:26:20.871Z,48.23
2018-07-16T09:28:49.470Z,46.13
2018-07-16T09:31:17.992Z,45.44
2018-07-16T09:33:46.495Z,44.55
2018-07-16T09:36:15.371Z,45.23
2018-07-16T09:38:43.914Z,45.33
2018-07-16T09:41:12.466Z,43.95
2018-07-16T09:43:40.980Z,43.57
2018-07-16T09:46:09.544Z,42.87
2018-07-16T09:48:38.998Z,42.38
2018-07-16T09:51:07.528Z,41.89
2018-07-16T09:53:37.201Z,39.10
2018-07-16T09:56:06.066Z,37.01
2018-07-16T09:58:34.644Z,36.37
2018-07-16T10:01:08.466Z,35.93
2018-07-16T10:03:36.975Z,35.56
2018-07-16T10:06:05.997Z,35.46
2018-07-16T10:08:34.515Z,34.52
2018-07-16T10:11:02.929Z,35.18
2018-07-16T10:13:31.584Z,33.78
2018-07-16T10:16:00.087Z,32.77
2018-07-16T10:18:28.613Z,32.46
2018-07-16T10:20:57.095Z,32.49
2018-07-16T10:23:25.555Z,31.19
2018-07-16T10:25:58.473Z,30.85
2018-07-16T10:28:27.067Z,29.62
2018-07-16T10:30:55.566Z,28.28
2018-07-16T10:33:24.083Z,27.53
2018-07-16T10:35:52.697Z,26.94
2018-07-16T10:38:21.956Z,28.29
2018-07-16T10:40:50.911Z,26.21
2018-07-16T10:43:19.603Z,25.78
2018-07-16T10:45:48.171Z,24.83
2018-07-16T10:48:16.792Z,23.89
2018-07-16T10:50:45.703Z,25.89
2018-07-16T10:53:14.290Z,24.68
2018-07-16T10:55:42.834Z,24.99
2018-07-16T10:58:11.374Z,25.65
2018-07-16T11:00:39.928Z,25.03
2018-07-16T11:03:08.558Z,22.69
2018-07-16T11:05:37.033Z,24.08
2018-07-16T11:08:09.812Z,19.81
2018-07-16T11:10:38.351Z,21.05
2018-07-16T11:13:06.902Z,22.76
2018-07-16T11:15:35.443Z,20.22
2018-07-16T11:18:03.947Z,21.78
2018-07-16T11:20:32.407Z,20.18
2018-07-16T11:23:00.927Z,20.32
2018-07-16T11:25:29.613Z,20.60
2018-07-16T11:27:58.158Z,20.41
2018-07-16T12:16:19.619Z,12.83
2018-07-16T12:18:48.043Z,12.20
2018-07-16T12:21:16.595Z,12.68
2018-07-16T12:23:45.151Z,12.95
2018-07-16T12:26:13.614Z,13.85
2018-07-16T12:28:42.224Z,13.55
2018-07-16T12:31:10.703Z,13.60
2018-07-16T12:33:39.214Z,13.57
2018-07-16T12:36:07.750Z,13.05
2018-07-16T12:38:36.203Z,11.80
2018-07-16T12:41:04.729Z,13.12
2018-07-16T12:43:33.159Z,12.67
2018-07-16T12:46:01.849Z,11.40
2018-07-16T12:48:30.546Z,11.61
2018-07-16T12:50:59.204Z,11.18
2018-07-16T12:53:27.703Z,10.65
2018-07-16T12:55:56.229Z,11.68
2018-07-16T12:58:24.882Z,12.57
2018-07-16T13:00:53.371Z,13.43
2018-07-16T13:03:21.867Z,13.51
2018-07-16T13:05:50.377Z,13.42
2018-07-16T13:08:18.943Z,12.85
2018-07-16T13:10:47.484Z,12.59
2018-07-16T13:13:15.978Z,12.75
2018-07-16T13:15:44.641Z,11.59
2018-07-16T13:18:13.180Z,12.04
2018-07-16T13:20:41.773Z,12.31
2018-07-16T13:23:10.212Z,11.66
2018-07-16T13:25:38.783Z,10.51
2018-07-16T13:28:07.341Z,10.41
2018-07-16T13:30:35.875Z,10.46
2018-07-16T13:33:04.338Z,9.73
2018-07-16T13:35:32.882Z,9.80
2018-07-16T13:38:01.462Z,9.77
2018-07-16T13:40:30.161Z,9.59
2018-07-16T13:42:58.726Z,9.16
2018-07-16T13:45:27.202Z,9.77
2018-07-16T13:47:55.680Z,9.43
2018-07-16T13:50:24.141Z,8.69
2018-07-16T13:52:52.735Z,8.99
2018-07-16T13:55:21.275Z,8.87
2018-07-16T13:57:49.858Z,8.22
2018-07-16T14:00:18.375Z,9.59
2018-07-16T14:02:46.862Z,8.91
2018-07-16T14:05:15.414Z,8.84
2018-07-16T14:07:44.021Z,9.00
2018-07-16T14:10:12.640Z,8.81
2018-07-16T14:12:41.444Z,8.54
2018-07-16T14:15:10.203Z,8.36
2018-07-16T14:17:38.665Z,9.11
2018-07-16T14:20:07.148Z,8.99
2018-07-16T14:22:35.619Z,9.40
2018-07-16T14:25:04.268Z,8.71
2018-07-16T14:27:33.719Z,8.90
2018-07-16T14:30:02.537Z,10.31
2018-07-16T14:32:31.033Z,8.41
2018-07-16T14:34:59.553Z,9.17
2018-07-16T14:37:28.176Z,9.69
2018-07-16T14:39:56.870Z,10.30
2018-07-16T14:42:25.464Z,10.10
2018-07-16T14:44:53.985Z,10.89
2018-07-16T14:47:22.592Z,9.51
2018-07-16T14:49:51.206Z,11.06
2018-07-16T14:52:19.815Z,10.59
2018-07-16T14:54:48.315Z,11.11
2018-07-16T14:57:16.870Z,10.42
2018-07-16T14:59:45.515Z,9.91
2018-07-16T15:02:14.024Z,10.41
2018-07-16T15:04:42.483Z,11.25
2018-07-16T15:07:11.071Z,12.38
2018-07-16T15:09:39.544Z,12.26
2018-07-16T15:12:08.024Z,12.32
2018-07-16T15:14:36.511Z,12.32
2018-07-16T15:17:05.158Z,12.90
2018-07-16T15:19:33.711Z,11.44
2018-07-16T15:22:02.275Z,11.87
2018-07-16T15:24:30.713Z,12.45
2018-07-16T15:26:59.278Z,12.96
2018-07-16T15:29:27.787Z,12.42
2018-07-16T15:31:56.435Z,11.61
2018-07-16T15:34:24.939Z,9.76
2018-07-16T15:36:53.506Z,9.91
2018-07-16T15:39:22.042Z,9.65
2018-07-16T15:41:50.524Z,10.24
2018-07-16T15:44:19.104Z,10.24
2018-07-16T15:46:47.710Z,9.65
2018-07-16T15:49:16.146Z,9.90
2018-07-16T15:51:44.744Z,9.54
2018-07-16T15:54:13.318Z,9.49
2018-07-16T15:56:42.083Z,10.64
2018-07-16T15:59:10.599Z,10.00
2018-07-16T16:01:39.065Z,9.57
2018-07-16T16:04:07.574Z,10.84
2018-07-16T16:06:36.100Z,11.20
2018-07-16T16:09:06.949Z,10.76
2018-07-16T16:11:35.495Z,11.47
2018-07-16T16:14:04.092Z,10.78
2018-07-16T16:16:33.056Z,9.32
2018-07-16T16:19:01.772Z,9.46
2018-07-16T16:21:30.752Z,9.88
2018-07-16T16:23:59.388Z,9.87
2018-07-16T16:26:28.013Z,9.17
2018-07-16T16:28:56.501Z,9.58
2018-07-16T16:31:25.155Z,11.97
2018-07-16T16:33:53.659Z,13.21
2018-07-16T16:36:22.159Z,12.32
2018-07-16T16:38:50.880Z,11.95
2018-07-16T16:41:19.852Z,11.32
2018-07-16T16:43:48.575Z,11.53
2018-07-16T16:46:17.448Z,11.35
2018-07-16T16:48:46.019Z,12.16
2018-07-16T16:51:14.572Z,13.71
2018-07-16T16:53:43.094Z,14.56
2018-07-16T16:56:11.672Z,12.59
2018-07-16T16:58:40.301Z,12.28
2018-07-16T17:01:08.789Z,13.03
2018-07-16T17:03:37.307Z,11.90
2018-07-16T17:06:05.942Z,11.63
2018-07-16T17:08:34.634Z,12.07
2018-07-16T17:11:03.103Z,12.55
2018-07-16T17:13:31.823Z,13.02
2018-07-16T17:16:00.452Z,13.34
2018-07-16T17:18:29.361Z,13.60
2018-07-16T17:20:57.883Z,15.40
2018-07-16T17:23:26.514Z,16.48
2018-07-16T17:25:55.040Z,17.31
2018-07-16T17:28:23.550Z,17.99
2018-07-16T17:30:52.174Z,18.76
2018-07-16T17:33:20.783Z,24.38
2018-07-16T17:35:49.289Z,30.96
2018-07-16T17:38:17.730Z,31.66
2018-07-16T17:40:46.291Z,32.96
2018-07-16T17:43:14.911Z,34.11
2018-07-16T17:45:43.614Z,32.84
2018-07-16T17:48:12.288Z,29.75
2018-07-16T17:50:40.852Z,26.76
2018-07-16T17:53:09.501Z,25.53
2018-07-16T17:55:38.027Z,26.37
2018-07-16T17:58:06.654Z,27.73
2018-07-16T18:00:35.203Z,27.82
2018-07-16T18:03:03.690Z,28.25
2018-07-16T18:05:32.192Z,29.53
2018-07-16T18:08:00.726Z,30.13
2018-07-16T18:10:29.452Z,30.32
2018-07-16T18:12:57.925Z,31.17
2018-07-16T18:15:26.460Z,31.82
2018-07-16T18:17:54.988Z,32.45
2018-07-16T18:20:23.494Z,32.09
2018-07-16T18:22:52.052Z,32.33
2018-07-16T18:25:20.618Z,32.44
2018-07-16T18:27:49.245Z,32.69
2018-07-16T18:30:17.822Z,33.20
2018-07-16T18:32:46.680Z,33.02
2018-07-16T18:35:15.147Z,33.73
2018-07-16T18:37:43.896Z,33.99
2018-07-16T18:40:12.661Z,34.55
2018-07-16T18:42:41.233Z,34.83
2018-07-16T18:45:09.736Z,35.04
2018-07-16T18:47:38.283Z,35.66
2018-07-16T18:50:08.131Z,36.66
2018-07-16T18:52:36.579Z,36.20
2018-07-16T18:55:05.740Z,36.90
2018-07-16T18:57:34.399Z,37.52
2018-07-16T19:00:03.047Z,37.07
2018-07-16T19:02:31.732Z,37.89
2018-07-16T19:05:00.235Z,38.83
2018-07-16T19:07:28.836Z,38.83
2018-07-16T19:09:58.332Z,38.99
2018-07-16T19:12:26.868Z,39.08
2018-07-16T19:14:55.443Z,39.80
2018-07-16T19:17:24.926Z,40.66
2018-07-16T19:19:53.500Z,40.54
2018-07-16T19:22:22.093Z,40.91
2018-07-16T19:24:50.680Z,41.53
2018-07-16T19:27:19.294Z,41.56
2018-07-16T19:29:47.946Z,42.99
2018-07-16T19:32:16.638Z,42.74
2018-07-16T19:34:45.307Z,42.65
2018-07-16T19:37:13.918Z,43.05
2018-07-16T19:39:42.568Z,43.87
2018-07-16T19:42:11.054Z,43.93
2018-07-16T19:44:39.507Z,44.32
2018-07-16T19:47:08.427Z,44.22
2018-07-16T19:49:37.223Z,44.04
2018-07-16T19:52:05.845Z,44.12
2018-07-16T19:54:34.454Z,44.18
2018-07-16T19:57:03.212Z,44.83
2018-07-16T19:59:31.570Z,46.22
2018-07-16T20:02:00.057Z,45.78
2018-07-16T20:04:28.605Z,45.78
2018-07-16T20:06:57.820Z,45.43
2018-07-16T20:09:27.331Z,45.10
2018-07-16T20:11:55.790Z,45.17
2018-07-16T20:14:24.930Z,45.62
2018-07-16T20:16:53.426Z,46.06
2018-07-16T20:19:21.887Z,45.38
2018-07-16T20:21:50.565Z,46.54
2018-07-16T20:24:19.091Z,46.80
2018-07-16T20:26:47.842Z,46.17
2018-07-16T20:29:16.342Z,46.84
2018-07-16T20:31:44.883Z,46.79
2018-07-16T20:34:13.429Z,48.08
2018-07-16T20:36:41.904Z,47.24
2018-07-16T20:39:10.449Z,48.19
2018-07-16T20:41:38.989Z,47.92
2018-07-16T20:44:07.558Z,47.87
2018-07-16T20:46:36.560Z,48.45
2018-07-16T20:49:05.107Z,48.55
2018-07-16T20:51:34.450Z,49.22
2018-07-16T20:54:02.956Z,48.93
2018-07-16T20:56:31.676Z,48.86
2018-07-16T20:59:00.655Z,49.55
2018-07-16T21:01:29.292Z,49.49
2018-07-16T21:03:57.779Z,49.35
2018-07-16T21:06:26.430Z,49.48
2018-07-16T21:08:54.991Z,50.54
2018-07-16T21:11:23.560Z,50.63
2018-07-16T21:13:52.130Z,51.83
2018-07-16T21:16:20.792Z,51.72
2018-07-16T21:18:49.329Z,52.16
2018-07-16T21:21:17.865Z,52.71
2018-07-16T21:23:47.101Z,52.54
2018-07-16T21:26:15.640Z,52.91
2018-07-16T21:28:44.204Z,53.45
2018-07-16T21:31:12.709Z,53.97
2018-07-16T21:33:41.673Z,55.15
2018-07-16T21:36:10.187Z,55.14
2018-07-16T21:38:38.928Z,56.19
2018-07-16T21:41:07.959Z,56.71
2018-07-16T21:43:36.479Z,56.48
2018-07-16T21:46:05.455Z,56.93
2018-07-16T21:48:34.052Z,56.62
2018-07-16T21:51:02.658Z,56.91
2018-07-16T21:53:31.333Z,57.96
2018-07-16T21:55:59.850Z,57.93
2018-07-16T21:58:28.535Z,57.38
2018-07-16T22:00:57.074Z,57.77
2018-07-16T22:03:25.610Z,57.43
2018-07-16T22:05:54.248Z,58.92
2018-07-16T22:08:22.776Z,58.89
2018-07-16T22:10:51.293Z,59.99
2018-07-16T22:13:19.915Z,60.90
2018-07-16T22:15:48.460Z,60.62
2018-07-16T22:18:17.047Z,60.90
2018-07-16T22:20:45.634Z,61.90
2018-07-16T22:23:14.248Z,61.16
2018-07-16T22:25:42.811Z,61.72
2018-07-16T22:28:11.316Z,62.34
2018-07-16T22:30:39.811Z,62.59
2018-07-16T22:33:08.379Z,63.09
2018-07-16T22:35:36.904Z,63.02
2018-07-16T22:38:05.567Z,62.93
2018-07-16T22:40:34.040Z,63.17
2018-07-16T22:43:02.551Z,63.89
2018-07-16T22:45:31.205Z,63.35
2018-07-16T22:47:59.754Z,63.58
2018-07-16T22:50:28.394Z,63.53
2018-07-16T22:52:56.882Z,66.29
2018-07-16T22:55:25.438Z,64.31
2018-07-16T22:57:53.946Z,64.21
2018-07-16T23:00:22.419Z,65.18
2018-07-16T23:02:50.926Z,64.66
2018-07-16T23:05:19.563Z,65.19
2018-07-16T23:07:48.052Z,65.29
2018-07-16T23:10:16.514Z,66.13
2018-07-16T23:12:45.130Z,66.46
2018-07-16T23:15:13.588Z,67.67
2018-07-16T23:17:42.095Z,66.84
2018-07-16T23:20:10.670Z,66.79
2018-07-16T23:22:49.215Z,67.36
2018-07-16T23:25:17.767Z,68.05
2018-07-16T23:27:46.591Z,68.86
2018-07-16T23:30:15.251Z,68.52
2018-07-16T23:32:44.092Z,69.07
2018-07-16T23:35:13.248Z,69.74
2018-07-16T23:37:41.943Z,70.58
2018-07-16T23:40:10.451Z,70.39
2018-07-16T23:42:38.959Z,71.25
2018-07-16T23:45:07.525Z,71.46
2018-07-16T23:47:36.083Z,70.97
2018-07-16T23:50:04.958Z,71.61
2018-07-16T23:52:33.473Z,71.76
2018-07-16T23:55:06.074Z,71.85
2018-07-16T23:57:34.562Z,72.90
